createdAt,value
2018-09-06T00:01:47.882Z,96018.75
2018-09-06T00:04:16.732Z,96020.91
2018-09-06T00:06:45.996Z,96017.96
2018-09-06T00:09:14.847Z,96018.50
2018-09-06T00:11:43.707Z,96017.43
2018-09-06T00:14:12.583Z,96017.20
2018-09-06T00:16:41.415Z,96020.92
2018-09-06T00:19:10.361Z,96012.31
2018-09-06T00:21:39.482Z,96014.19
2018-09-06T00:24:08.368Z,96023.86
2018-09-06T00:26:37.281Z,96015.55
2018-09-06T00:29:06.112Z,96013.14
2018-09-06T00:31:36.072Z,96016.67
2018-09-06T00:34:04.945Z,96017.77
2018-09-06T00:36:33.807Z,96018.58
2018-09-06T00:39:03.565Z,96015.14
2018-09-06T00:41:32.954Z,96016.48
2018-09-06T00:44:01.866Z,96022.17
2018-09-06T00:46:30.760Z,96016.55
2018-09-06T00:48:59.611Z,96019.82
2018-09-06T00:51:29.009Z,96011.49
2018-09-06T00:53:58.714Z,96007.19
2018-09-06T00:56:27.504Z,96003.97
2018-09-06T00:58:56.328Z,96007.73
2018-09-06T01:01:25.160Z,96004.52
2018-09-06T01:03:54.303Z,96001.56
2018-09-06T01:06:23.087Z,96001.34
2018-09-06T01:08:51.982Z,95995.97
2018-09-06T01:11:20.811Z,95999.73
2018-09-06T01:13:50.089Z,96003.23
2018-09-06T01:16:18.961Z,96003.00
2018-09-06T01:18:47.819Z,95993.89
2018-09-06T01:21:17.484Z,95995.76
2018-09-06T01:23:46.333Z,95999.78
2018-09-06T01:26:15.148Z,95996.56
2018-09-06T01:28:44.459Z,95993.36
2018-09-06T01:31:13.471Z,95999.03
2018-09-06T01:33:42.274Z,95994.78
2018-09-06T01:36:16.914Z,95997.47
2018-09-06T01:38:46.607Z,95988.58
2018-09-06T01:41:15.452Z,95989.10
2018-09-06T01:43:44.306Z,95991.25
2018-09-06T01:46:13.699Z,95986.73
2018-09-06T01:48:42.547Z,95982.44
2018-09-06T01:51:11.352Z,95978.14
2018-09-06T01:53:40.194Z,95978.14
2018-09-06T01:56:09.431Z,95970.64
2018-09-06T01:58:38.253Z,95979.48
2018-09-06T02:01:07.133Z,95975.73
2018-09-06T02:03:35.957Z,95970.64
2018-09-06T02:06:05.847Z,95966.11
2018-09-06T02:08:34.746Z,95968.53
2018-09-06T02:11:04.042Z,95967.20
2018-09-06T02:13:32.901Z,95962.91
2018-09-06T02:16:01.792Z,95956.73
2018-09-06T02:18:31.807Z,95959.45
2018-09-06T02:21:00.686Z,95954.63
2018-09-06T02:23:29.544Z,95961.34
2018-09-06T02:25:58.415Z,95953.86
2018-09-06T02:28:27.278Z,95951.99
2018-09-06T02:30:56.248Z,95954.41
2018-09-06T02:33:25.131Z,95947.16
2018-09-06T02:35:53.991Z,95950.11
2018-09-06T02:38:22.858Z,95943.41
2018-09-06T02:40:52.076Z,95951.99
2018-09-06T02:43:20.908Z,95946.63
2018-09-06T02:45:49.719Z,95943.41
2018-09-06T02:48:18.565Z,95942.60
2018-09-06T02:50:52.394Z,95941.00
2018-09-06T02:53:21.261Z,95942.38
2018-09-06T02:55:50.179Z,95936.74
2018-09-06T02:58:19.017Z,95930.58
2018-09-06T03:00:47.906Z,95932.98
2018-09-06T03:03:16.788Z,95933.02
2018-09-06T03:05:45.895Z,95935.98
2018-09-06T03:08:14.743Z,95926.59
2018-09-06T03:10:45.548Z,95923.91
2018-09-06T03:13:14.468Z,95927.40
2018-09-06T03:15:43.592Z,95918.55
2018-09-06T03:18:12.478Z,95919.09
2018-09-06T03:20:41.322Z,95926.86
2018-09-06T03:23:10.890Z,95925.52
2018-09-06T03:25:40.110Z,95927.39
2018-09-06T03:28:08.930Z,95924.98
2018-09-06T03:30:37.730Z,95925.25
2018-09-06T03:33:06.938Z,95922.03
2018-09-06T03:35:35.793Z,95919.31
2018-09-06T03:38:04.672Z,95918.23
2018-09-06T03:40:33.485Z,95916.59
2018-09-06T03:43:02.278Z,95918.73
2018-09-06T03:45:31.166Z,95918.20
2018-09-06T03:48:00.463Z,95917.09
2018-09-06T03:50:29.291Z,95922.71
2018-09-06T03:52:58.183Z,95912.78
2018-09-06T03:55:26.971Z,95910.33
2018-09-06T03:58:08.163Z,95914.61
2018-09-06T04:00:37.447Z,95905.22
2018-09-06T04:03:06.355Z,95911.39
2018-09-06T04:05:35.650Z,95911.93
2018-09-06T04:08:04.472Z,95913.00
2018-09-06T04:10:33.962Z,95912.20
2018-09-06T04:13:02.778Z,95910.58
2018-09-06T04:15:31.894Z,95912.73
2018-09-06T04:19:02.787Z,95912.45
2018-09-06T04:21:31.596Z,95909.52
2018-09-06T04:24:00.908Z,95910.33
2018-09-06T04:26:29.763Z,95908.22
2018-09-06T04:28:58.708Z,95901.78
2018-09-06T04:31:27.807Z,95906.61
2018-09-06T04:33:56.711Z,95906.88
2018-09-06T04:36:25.554Z,95905.81
2018-09-06T04:39:05.275Z,95908.23
2018-09-06T04:41:40.737Z,95900.45
2018-09-06T04:44:09.792Z,95899.42
2018-09-06T04:46:50.187Z,95895.13
2018-09-06T04:49:19.318Z,95894.01
2018-09-06T04:51:56.780Z,95900.72
2018-09-06T04:54:25.694Z,95894.01
2018-09-06T04:56:54.495Z,95894.00
2018-09-06T04:59:24.226Z,95898.56
2018-09-06T05:01:55.259Z,95892.13
2018-09-06T05:04:26.459Z,95893.97
2018-09-06T05:06:55.300Z,95900.66
2018-09-06T05:09:24.035Z,95898.52
2018-09-06T05:11:53.228Z,95902.00
2018-09-06T05:14:22.027Z,95900.66
2018-09-06T05:16:50.807Z,95904.94
2018-09-06T05:19:19.958Z,95905.75
2018-09-06T05:21:48.785Z,95900.62
2018-09-06T05:24:17.647Z,95900.34
2018-09-06T05:26:46.509Z,95900.06
2018-09-06T05:29:16.782Z,95904.62
2018-09-06T05:31:46.395Z,95902.47
2018-09-06T05:34:15.284Z,95898.14
2018-09-06T05:36:44.541Z,95894.63
2018-09-06T05:39:14.198Z,95900.49
2018-09-06T05:41:44.642Z,95900.73
2018-09-06T05:44:14.639Z,95893.98
2018-09-06T05:46:44.548Z,95893.09
2018-09-06T05:49:13.372Z,95893.84
2018-09-06T05:51:42.208Z,95886.78
2018-09-06T05:54:12.893Z,95891.30
2018-09-06T05:56:42.340Z,95887.48
2018-09-06T05:59:11.166Z,95888.48
2018-09-06T06:01:39.980Z,95886.03
2018-09-06T06:04:08.750Z,95880.31
2018-09-06T06:06:37.623Z,95881.57
2018-09-06T06:11:59.995Z,95884.33
2018-09-06T06:14:28.792Z,95884.42
2018-09-06T06:16:57.600Z,95883.74
2018-09-06T06:19:26.419Z,95877.10
2018-09-06T06:21:59.344Z,95874.25
2018-09-06T06:24:28.172Z,95874.55
2018-09-06T06:26:58.037Z,95866.54
2018-09-06T06:29:26.878Z,95869.95
2018-09-06T06:31:55.732Z,95869.60
2018-09-06T06:34:24.889Z,95868.91
2018-09-06T06:36:53.687Z,95863.95
2018-09-06T06:39:22.556Z,95861.18
2018-09-06T06:41:51.398Z,95855.63
2018-09-06T06:44:20.647Z,95860.80
2018-09-06T06:46:49.473Z,95863.73
2018-09-06T06:49:26.769Z,95864.84
2018-09-06T06:51:57.372Z,95856.61
2018-09-06T06:54:28.478Z,95856.41
2018-09-06T06:56:57.438Z,95857.09
2018-09-06T06:59:30.634Z,95851.45
2018-09-06T07:02:01.617Z,95855.42
2018-09-06T07:04:32.418Z,95854.46
2018-09-06T07:07:04.946Z,95852.36
2018-09-06T07:09:34.412Z,95844.67
2018-09-06T07:12:12.988Z,95849.24
2018-09-06T07:14:41.896Z,95849.66
2018-09-06T07:17:15.173Z,95849.75
2018-09-06T07:19:51.896Z,95849.52
2018-09-06T07:22:25.981Z,95854.59
2018-09-06T07:24:56.382Z,95844.81
2018-09-06T07:27:27.187Z,95848.59
2018-09-06T07:29:56.459Z,95843.91
2018-09-06T07:32:25.385Z,95848.06
2018-09-06T07:34:54.725Z,95841.53
2018-09-06T07:37:24.899Z,95833.92
2018-09-06T07:39:53.804Z,95836.41
2018-09-06T07:42:22.669Z,95836.84
2018-09-06T07:44:51.514Z,95840.59
2018-09-06T07:47:22.767Z,95834.45
2018-09-06T07:49:55.798Z,95837.34
2018-09-06T07:52:25.413Z,95843.05
2018-09-06T07:54:54.757Z,95835.17
2018-09-06T07:57:24.386Z,95837.81
2018-09-06T07:59:53.356Z,95837.35
2018-09-06T08:02:23.345Z,95840.78
2018-09-06T08:04:53.549Z,95841.16
2018-09-06T08:07:22.478Z,95838.24
2018-09-06T08:09:51.635Z,95839.77
2018-09-06T08:12:24.122Z,95839.77
2018-09-06T08:15:05.230Z,95841.47
2018-09-06T08:17:37.855Z,95842.06
2018-09-06T08:20:11.487Z,95834.89
2018-09-06T08:22:42.367Z,95835.25
2018-09-06T08:25:12.083Z,95837.05
2018-09-06T08:27:45.781Z,95831.73
2018-09-06T08:30:15.227Z,95830.27
2018-09-06T08:32:45.808Z,95835.48
2018-09-06T08:35:16.374Z,95833.33
2018-09-06T08:37:45.183Z,95835.36
2018-09-06T08:40:14.884Z,95832.23
2018-09-06T08:42:48.168Z,95834.45
2018-09-06T08:45:19.866Z,95839.00
2018-09-06T08:47:49.796Z,95826.55
2018-09-06T08:50:22.515Z,95822.27
2018-09-06T08:52:51.731Z,95825.99
2018-09-06T08:55:23.767Z,95827.31
2018-09-06T08:57:54.405Z,95823.80
2018-09-06T09:02:37.436Z,95826.27
2018-09-06T09:05:09.067Z,95821.63
2018-09-06T09:07:41.687Z,95819.23
2018-09-06T09:10:18.076Z,95813.20
2018-09-06T09:12:47.343Z,95813.88
2018-09-06T09:15:16.406Z,95819.27
2018-09-06T09:17:45.184Z,95817.90
2018-09-06T09:20:13.975Z,95807.77
2018-09-06T09:22:45.739Z,95812.72
2018-09-06T09:25:16.231Z,95808.06
2018-09-06T09:27:47.854Z,95809.84
2018-09-06T09:30:16.814Z,95816.13
2018-09-06T09:32:45.760Z,95813.82
2018-09-06T09:35:15.139Z,95806.11
2018-09-06T09:37:44.023Z,95810.84
2018-09-06T09:40:12.974Z,95808.69
2018-09-06T09:42:44.090Z,95815.25
2018-09-06T09:45:14.244Z,95811.55
2018-09-06T09:47:44.737Z,95814.77
2018-09-06T09:52:42.476Z,95803.77
2018-09-06T09:55:11.318Z,95804.06
2018-09-06T09:57:56.335Z,95799.95
2018-09-06T10:00:36.764Z,95800.66
2018-09-06T10:03:14.127Z,95795.59
2018-09-06T10:07:59.534Z,95794.28
2018-09-06T10:10:46.468Z,95783.06
2018-09-06T10:13:29.908Z,95778.52
2018-09-06T10:15:59.769Z,95773.89
2018-09-06T10:18:29.787Z,95765.45
2018-09-06T10:21:17.282Z,95765.25
2018-09-06T10:23:46.132Z,95762.72
2018-09-06T10:26:15.334Z,95756.50
2018-09-06T10:28:45.270Z,95752.50
2018-09-06T10:31:14.119Z,95758.47
2018-09-06T10:33:44.151Z,95753.41
2018-09-06T10:36:28.248Z,95749.81
2018-09-06T10:38:57.085Z,95748.16
2018-09-06T10:41:26.876Z,95750.88
2018-09-06T10:43:59.336Z,95742.89
2018-09-06T10:46:28.792Z,95745.96
2018-09-06T10:49:02.454Z,95735.70
2018-09-06T10:51:36.065Z,95736.88
2018-09-06T10:54:11.813Z,95734.63
2018-09-06T10:56:43.351Z,95732.22
2018-09-06T10:59:13.834Z,95729.38
2018-09-06T11:01:48.490Z,95728.06
2018-09-06T11:04:44.312Z,95726.92
2018-09-06T11:07:13.116Z,95730.27
2018-09-06T11:09:42.362Z,95723.22
2018-09-06T11:12:11.162Z,95719.02
2018-09-06T11:14:42.262Z,95710.57
2018-09-06T11:17:14.986Z,95710.81
2018-09-06T11:19:49.801Z,95709.52
2018-09-06T11:22:32.695Z,95712.09
2018-09-06T11:25:08.224Z,95710.70
2018-09-06T11:27:39.753Z,95709.05
2018-09-06T11:30:19.820Z,95710.45
2018-09-06T11:32:54.247Z,95708.57
2018-09-06T11:35:33.385Z,95705.97
2018-09-06T11:38:02.899Z,95708.28
2018-09-06T11:40:39.771Z,95702.16
2018-09-06T11:48:29.278Z,95691.80
2018-09-06T11:51:14.587Z,95693.71
2018-09-06T11:53:43.342Z,95682.24
2018-09-06T11:56:12.218Z,95690.02
2018-09-06T11:58:41.431Z,95689.30
2018-09-06T12:01:19.797Z,95684.95
2018-09-06T12:03:58.655Z,95683.28
2018-09-06T12:06:34.112Z,95683.50
2018-09-06T12:09:11.519Z,95683.00
2018-09-06T12:11:40.394Z,95684.92
2018-09-06T12:14:42.775Z,95677.87
2018-09-06T12:17:16.434Z,95674.67
2018-09-06T12:19:47.001Z,95675.91
2018-09-06T12:22:17.019Z,95665.70
2018-09-06T12:24:45.908Z,95664.84
2018-09-06T12:27:38.465Z,95659.38
2018-09-06T12:30:18.098Z,95654.72
2018-09-06T12:32:53.077Z,95654.87
2018-09-06T12:38:26.252Z,95650.69
2018-09-06T12:41:20.308Z,95649.84
2018-09-06T12:43:58.414Z,95645.53
2018-09-06T12:46:52.616Z,95639.55
2018-09-06T12:52:21.972Z,95625.59
2018-09-06T12:55:09.683Z,95631.55
2018-09-06T12:58:14.804Z,95629.78
2018-09-06T13:00:45.780Z,95620.35
2018-09-06T13:03:16.782Z,95622.27
2018-09-06T13:05:46.832Z,95623.39
2018-09-06T13:08:17.550Z,95615.03
2018-09-06T13:11:04.043Z,95623.47
2018-09-06T13:13:36.394Z,95618.85
2018-09-06T13:16:31.954Z,95614.70
2018-09-06T13:19:01.721Z,95611.51
2018-09-06T13:21:34.099Z,95608.77
2018-09-06T13:24:03.549Z,95605.81
2018-09-06T13:26:35.929Z,95601.02
2018-09-06T13:29:05.480Z,95600.95
2018-09-06T13:31:36.664Z,95598.56
2018-09-06T13:34:06.467Z,95600.08
2018-09-06T13:36:37.200Z,95590.36
2018-09-06T13:39:11.600Z,95588.89
2018-09-06T13:41:44.173Z,95589.83
2018-09-06T13:44:15.233Z,95581.44
2018-09-06T13:46:44.353Z,95578.38
2018-09-06T13:49:13.195Z,95580.42
2018-09-06T13:51:43.026Z,95570.16
2018-09-06T13:54:13.357Z,95568.70
2018-09-06T13:56:42.217Z,95572.52
2018-09-06T13:59:11.551Z,95572.62
2018-09-06T14:01:41.292Z,95564.91
2018-09-06T14:04:10.987Z,95568.44
2018-09-06T14:06:41.242Z,95563.47
2018-09-06T14:09:15.320Z,95560.80
2018-09-06T14:11:45.572Z,95565.42
2018-09-06T14:14:17.092Z,95556.00
2018-09-06T14:16:46.901Z,95555.78
2018-09-06T14:19:15.745Z,95554.14
2018-09-06T14:21:44.663Z,95547.54
2018-09-06T14:24:15.181Z,95550.98
2018-09-06T14:26:46.598Z,95550.50
2018-09-06T14:29:16.449Z,95554.73
2018-09-06T14:31:45.280Z,95545.88
2018-09-06T14:34:15.308Z,95545.66
2018-09-06T14:36:44.565Z,95542.71
2018-09-06T14:39:17.175Z,95539.05
2018-09-06T14:41:47.783Z,95540.06
2018-09-06T14:44:16.641Z,95535.95
2018-09-06T14:46:46.500Z,95534.37
2018-09-06T14:49:15.393Z,95537.55
2018-09-06T14:51:45.233Z,95531.28
2018-09-06T14:54:14.446Z,95536.75
2018-09-06T14:56:43.270Z,95535.66
2018-09-06T14:59:15.408Z,95536.17
2018-09-06T15:01:47.005Z,95532.50
2018-09-06T15:04:20.479Z,95527.73
2018-09-06T15:06:52.100Z,95530.91
2018-09-06T15:09:21.712Z,95531.91
2018-09-06T15:11:51.271Z,95527.59
2018-09-06T15:14:24.516Z,95524.86
2018-09-06T15:16:54.366Z,95519.17
2018-09-06T15:19:24.228Z,95518.59
2018-09-06T15:21:53.107Z,95518.38
2018-09-06T15:24:23.241Z,95517.82
2018-09-06T15:26:52.695Z,95515.02
2018-09-06T15:29:24.292Z,95514.89
2018-09-06T15:31:54.113Z,95508.91
2018-09-06T15:34:24.840Z,95507.84
2018-09-06T15:36:53.718Z,95508.91
2018-09-06T15:39:22.512Z,95505.77
2018-09-06T15:41:51.307Z,95503.83
2018-09-06T15:44:20.587Z,95493.25
2018-09-06T15:46:50.304Z,95494.98
2018-09-06T15:49:21.256Z,95491.67
2018-09-06T15:51:52.578Z,95498.94
2018-09-06T15:54:23.579Z,95495.98
2018-09-06T15:57:06.436Z,95497.98
2018-09-06T15:59:36.621Z,95486.41
2018-09-06T16:02:06.615Z,95484.02
2018-09-06T16:04:36.387Z,95476.88
2018-09-06T16:07:05.224Z,95484.15
2018-09-06T16:09:35.654Z,95481.37
2018-09-06T16:12:04.766Z,95474.37
2018-09-06T16:14:33.655Z,95482.53
2018-09-06T16:17:05.481Z,95481.09
2018-09-06T16:19:34.485Z,95477.56
2018-09-06T16:22:03.357Z,95475.85
2018-09-06T16:24:38.821Z,95479.16
2018-09-06T16:27:09.238Z,95478.50
2018-09-06T16:29:38.591Z,95470.50
2018-09-06T16:32:07.451Z,95473.02
2018-09-06T16:34:38.072Z,95478.48
2018-09-06T16:37:07.109Z,95477.50
2018-09-06T16:39:35.927Z,95480.56
2018-09-06T16:42:04.915Z,95468.27
2018-09-06T16:44:34.110Z,95479.30
2018-09-06T16:47:03.841Z,95473.42
2018-09-06T16:49:33.340Z,95481.67
2018-09-06T16:52:05.349Z,95473.52
2018-09-06T16:54:34.547Z,95476.56
2018-09-06T16:57:03.718Z,95473.52
2018-09-06T16:59:33.172Z,95465.58
2018-09-06T17:02:02.175Z,95467.83
2018-09-06T17:04:43.628Z,95458.35
2018-09-06T17:07:20.925Z,95457.18
2018-09-06T17:09:56.370Z,95460.05
2018-09-06T17:12:35.651Z,95466.45
2018-09-06T17:15:13.805Z,95456.48
2018-09-06T17:17:46.605Z,95459.11
2018-09-06T17:20:23.117Z,95460.95
2018-09-06T17:23:03.561Z,95454.79
2018-09-06T17:25:46.164Z,95459.09
2018-09-06T17:28:19.591Z,95458.08
2018-09-06T17:31:04.979Z,95451.94
2018-09-06T17:33:37.638Z,95456.34
2018-09-06T17:36:19.080Z,95459.25
2018-09-06T17:38:53.483Z,95464.54
2018-09-06T17:41:33.385Z,95465.68
2018-09-06T17:44:10.894Z,95469.95
2018-09-06T17:46:39.823Z,95469.42
2018-09-06T17:49:09.516Z,95467.11
2018-09-06T17:51:39.748Z,95475.47
2018-09-06T17:54:11.118Z,95483.31
2018-09-06T17:56:41.590Z,95477.60
2018-09-06T17:59:23.739Z,95477.90
2018-09-06T18:01:55.223Z,95485.11
2018-09-06T18:04:25.618Z,95487.95
2018-09-06T18:06:54.502Z,95487.45
2018-09-06T18:09:23.344Z,95491.36
2018-09-06T18:11:53.659Z,95486.27
2018-09-06T18:14:25.531Z,95485.86
2018-09-06T18:16:55.307Z,95484.50
2018-09-06T18:19:26.362Z,95489.09
2018-09-06T18:21:55.155Z,95487.94
2018-09-06T18:24:25.213Z,95486.95
2018-09-06T18:26:54.039Z,95489.13
2018-09-06T18:29:23.240Z,95490.75
2018-09-06T18:32:23.511Z,95487.52
2018-09-06T18:34:52.327Z,95491.13
2018-09-06T18:37:23.453Z,95492.92
2018-09-06T18:39:53.650Z,95490.33
2018-09-06T18:42:22.448Z,95490.96
2018-09-06T18:44:52.141Z,95495.09
2018-09-06T18:47:21.979Z,95496.63
2018-09-06T18:49:53.811Z,95494.88
2018-09-06T18:52:22.661Z,95494.19
2018-09-06T18:54:53.142Z,95498.23
2018-09-06T18:57:22.007Z,95498.00
2018-09-06T18:59:50.884Z,95499.66
2018-09-06T19:02:21.742Z,95505.95
2018-09-06T19:04:50.554Z,95508.89
2018-09-06T19:07:19.965Z,95502.07
2018-09-06T19:09:52.722Z,95512.16
2018-09-06T19:12:22.362Z,95501.73
2018-09-06T19:14:51.939Z,95505.34
2018-09-06T19:17:23.317Z,95505.17
2018-09-06T19:19:52.403Z,95512.31
2018-09-06T19:22:22.364Z,95514.22
2018-09-06T19:24:53.677Z,95506.98
2018-09-06T19:27:25.017Z,95500.56
2018-09-06T19:29:53.797Z,95503.89
2018-09-06T19:32:24.316Z,95501.50
2018-09-06T19:34:53.374Z,95506.19
2018-09-06T19:37:23.647Z,95506.73
2018-09-06T19:39:53.330Z,95512.31
2018-09-06T19:42:25.280Z,95504.14
2018-09-06T19:44:54.404Z,95509.92
2018-09-06T19:47:25.264Z,95511.28
2018-09-06T19:49:54.926Z,95512.66
2018-09-06T19:52:26.204Z,95516.05
2018-09-06T19:54:57.376Z,95520.73
2018-09-06T19:57:27.410Z,95526.99
2018-09-06T19:59:58.913Z,95515.95
2018-09-06T20:02:29.839Z,95511.80
2018-09-06T20:04:59.363Z,95512.47
2018-09-06T20:07:28.831Z,95509.66
2018-09-06T20:09:58.283Z,95506.86
2018-09-06T20:15:05.343Z,95509.25
2018-09-06T20:17:35.426Z,95510.72
2018-09-06T20:20:04.256Z,95509.13
2018-09-06T20:22:36.530Z,95510.88
2018-09-06T20:25:06.339Z,95510.13
2018-09-06T20:27:38.495Z,95509.33
2018-09-06T20:30:08.684Z,95501.92
2018-09-06T20:32:37.526Z,95504.34
2018-09-06T20:35:06.487Z,95501.85
2018-09-06T20:37:35.391Z,95509.20
2018-09-06T20:40:05.818Z,95503.98
2018-09-06T20:42:34.667Z,95500.98
2018-09-06T20:45:04.138Z,95504.73
2018-09-06T20:47:40.210Z,95508.55
2018-09-06T20:50:09.684Z,95505.23
2018-09-06T20:52:42.285Z,95508.88
2018-09-06T20:55:13.356Z,95512.88
2018-09-06T20:57:44.185Z,95503.42
2018-09-06T21:00:13.312Z,95512.72
2018-09-06T21:02:45.640Z,95515.36
2018-09-06T21:05:15.219Z,95518.77
2018-09-06T21:07:44.121Z,95518.14
2018-09-06T21:10:12.955Z,95527.05
2018-09-06T21:12:41.780Z,95523.38
2018-09-06T21:15:15.094Z,95520.60
2018-09-06T21:17:44.412Z,95520.98
2018-09-06T21:20:14.999Z,95519.31
2018-09-06T21:22:44.621Z,95518.90
2018-09-06T21:25:13.931Z,95516.43
2018-09-06T21:27:42.718Z,95516.59
2018-09-06T21:30:11.515Z,95518.33
2018-09-06T21:32:40.971Z,95508.62
2018-09-06T21:35:10.795Z,95506.09
2018-09-06T21:37:39.575Z,95508.08
2018-09-06T21:40:08.527Z,95508.56
2018-09-06T21:42:37.299Z,95505.93
2018-09-06T21:45:06.641Z,95508.95
2018-09-06T21:47:35.787Z,95508.95
2018-09-06T21:50:04.568Z,95502.43
2018-09-06T21:52:34.385Z,95507.84
2018-09-06T21:55:03.207Z,95510.23
2018-09-06T21:57:34.142Z,95508.81
2018-09-06T22:00:03.726Z,95510.16
2018-09-06T22:02:38.143Z,95515.25
2018-09-06T22:05:07.123Z,95514.84
2018-09-06T22:07:37.563Z,95513.49
2018-09-06T22:10:06.479Z,95510.41
2018-09-06T22:12:37.018Z,95517.54
2018-09-06T22:15:06.936Z,95515.70
2018-09-06T22:17:36.194Z,95510.70
2018-09-06T22:20:05.666Z,95506.72
2018-09-06T22:22:34.507Z,95500.03
2018-09-06T22:25:03.386Z,95497.33
2018-09-06T22:27:33.156Z,95492.48
2018-09-06T22:30:03.713Z,95495.42
2018-09-06T22:32:34.027Z,95482.33
2018-09-06T22:35:05.591Z,95491.06
2018-09-06T22:37:37.439Z,95485.59
2018-09-06T22:40:08.065Z,95482.58
2018-09-06T22:42:37.555Z,95490.62
2018-09-06T22:45:06.403Z,95487.43
2018-09-06T22:47:35.223Z,95482.95
2018-09-06T22:50:04.194Z,95478.59
2018-09-06T22:52:33.024Z,95478.04
2018-09-06T22:55:01.957Z,95471.11
2018-09-06T22:57:30.861Z,95470.34
2018-09-06T22:59:59.749Z,95471.77
2018-09-06T23:02:33.909Z,95467.05
2018-09-06T23:05:02.834Z,95472.22
2018-09-06T23:07:31.679Z,95471.34
2018-09-06T23:10:00.528Z,95471.03
2018-09-06T23:12:29.426Z,95459.67
2018-09-06T23:14:59.038Z,95468.64
2018-09-06T23:17:28.277Z,95467.30
2018-09-06T23:19:57.134Z,95462.13
2018-09-06T23:22:26.221Z,95457.59
2018-09-06T23:24:55.497Z,95455.52
2018-09-06T23:27:26.146Z,95452.29
2018-09-06T23:29:55.652Z,95450.67
2018-09-06T23:32:24.571Z,95449.59
2018-09-06T23:34:53.766Z,95447.20
2018-09-06T23:37:22.624Z,95450.29
2018-09-06T23:39:51.564Z,95454.52
2018-09-06T23:42:20.493Z,95463.10
2018-09-06T23:44:49.646Z,95492.59
2018-09-06T23:47:19.011Z,95493.80
2018-09-06T23:49:47.840Z,95495.39
2018-09-06T23:52:16.720Z,95501.91
2018-09-06T23:54:45.502Z,95496.97
2018-09-06T23:57:14.347Z,95490.83
2018-09-06T23:59:43.472Z,95491.46
